sensor_id;sensor_type;location;lat;lon;timestamp;temperature;humidity
14349;DHT22;7258;50.376;8.742;2023-09-08T00:00:11;16.50;99.90
14349;DHT22;7258;50.376;8.742;2023-09-08T00:02:14;16.50;99.90
14349;DHT22;7258;50.376;8.742;2023-09-08T00:04:16;16.50;99.90
14349;DHT22;7258;50.376;8.742;2023-09-08T00:06:21;16.40;99.90
14349;DHT22;7258;50.376;8.742;2023-09-08T00:08:24;16.40;99.90
14349;DHT22;7258;50.376;8.742;2023-09-08T00:10:27;16.40;99.90
14349;DHT22;7258;50.376;8.742;2023-09-08T00:12:32;16.40;99.90
14349;DHT22;7258;50.376;8.742;2023-09-08T00:14:35;16.40;99.90
14349;DHT22;7258;50.376;8.742;2023-09-08T00:16:38;16.40;99.90
14349;DHT22;7258;50.376;8.742;2023-09-08T00:18:44;16.40;99.90
14349;DHT22;7258;50.376;8.742;2023-09-08T00:20:47;16.40;99.90
14349;DHT22;7258;50.376;8.742;2023-09-08T00:22:50;16.40;99.90
14349;DHT22;7258;50.376;8.742;2023-09-08T00:24:53;16.40;99.90
14349;DHT22;7258;50.376;8.742;2023-09-08T00:26:57;16.30;99.90
14349;DHT22;7258;50.376;8.742;2023-09-08T00:29:01;16.30;99.90
14349;DHT22;7258;50.376;8.742;2023-09-08T00:31:05;16.30;99.90
14349;DHT22;7258;50.376;8.742;2023-09-08T00:33:08;16.30;99.90
14349;DHT22;7258;50.376;8.742;2023-09-08T00:35:13;16.30;99.90
14349;DHT22;7258;50.376;8.742;2023-09-08T00:37:19;16.30;99.90
14349;DHT22;7258;50.376;8.742;2023-09-08T00:39:24;16.30;99.90
14349;DHT22;7258;50.376;8.742;2023-09-08T00:41:28;16.30;99.90
14349;DHT22;7258;50.376;8.742;2023-09-08T00:43:31;16.30;99.90
14349;DHT22;7258;50.376;8.742;2023-09-08T00:45:40;16.30;99.90
14349;DHT22;7258;50.376;8.742;2023-09-08T00:47:44;16.20;99.90
14349;DHT22;7258;50.376;8.742;2023-09-08T00:49:51;16.10;99.90
14349;DHT22;7258;50.376;8.742;2023-09-08T00:51:55;16.10;99.90
14349;DHT22;7258;50.376;8.742;2023-09-08T00:54:00;16.00;99.90
14349;DHT22;7258;50.376;8.742;2023-09-08T00:56:04;16.00;99.90
14349;DHT22;7258;50.376;8.742;2023-09-08T00:58:08;15.90;99.90
14349;DHT22;7258;50.376;8.742;2023-09-08T01:00:13;15.90;99.90
14349;DHT22;7258;50.376;8.742;2023-09-08T01:02:19;15.90;99.90
14349;DHT22;7258;50.376;8.742;2023-09-08T01:04:26;15.90;99.90
14349;DHT22;7258;50.376;8.742;2023-09-08T01:06:30;15.90;99.90
14349;DHT22;7258;50.376;8.742;2023-09-08T01:08:35;15.90;99.90
14349;DHT22;7258;50.376;8.742;2023-09-08T01:10:43;15.80;99.90
14349;DHT22;7258;50.376;8.742;2023-09-08T01:12:48;15.80;99.90
14349;DHT22;7258;50.376;8.742;2023-09-08T01:14:54;15.80;99.90
14349;DHT22;7258;50.376;8.742;2023-09-08T01:16:57;15.80;99.90
14349;DHT22;7258;50.376;8.742;2023-09-08T01:19:03;15.80;99.90
14349;DHT22;7258;50.376;8.742;2023-09-08T01:21:24;15.70;99.90
14349;DHT22;7258;50.376;8.742;2023-09-08T01:23:42;15.70;99.90
14349;DHT22;7258;50.376;8.742;2023-09-08T01:25:55;15.70;99.90
14349;DHT22;7258;50.376;8.742;2023-09-08T01:28:01;15.70;99.90
14349;DHT22;7258;50.376;8.742;2023-09-08T01:30:06;15.70;99.90
14349;DHT22;7258;50.376;8.742;2023-09-08T01:32:09;15.70;99.90
14349;DHT22;7258;50.376;8.742;2023-09-08T01:34:13;15.70;99.90
14349;DHT22;7258;50.376;8.742;2023-09-08T01:36:16;15.70;99.90
14349;DHT22;7258;50.376;8.742;2023-09-08T01:38:21;15.70;99.90
14349;DHT22;7258;50.376;8.742;2023-09-08T01:40:27;15.60;99.90
14349;DHT22;7258;50.376;8.742;2023-09-08T01:42:32;15.60;99.90
14349;DHT22;7258;50.376;8.742;2023-09-08T01:44:34;15.60;99.90
14349;DHT22;7258;50.376;8.742;2023-09-08T01:46:38;15.60;99.90
14349;DHT22;7258;50.376;8.742;2023-09-08T01:48:42;15.60;99.90
14349;DHT22;7258;50.376;8.742;2023-09-08T01:50:47;15.60;99.90
14349;DHT22;7258;50.376;8.742;2023-09-08T01:52:51;15.60;99.90
14349;DHT22;7258;50.376;8.742;2023-09-08T01:54:54;15.60;99.90
14349;DHT22;7258;50.376;8.742;2023-09-08T01:56:58;15.60;99.90
14349;DHT22;7258;50.376;8.742;2023-09-08T01:59:02;15.60;99.90
14349;DHT22;7258;50.376;8.742;2023-09-08T02:01:06;15.60;99.90
14349;DHT22;7258;50.376;8.742;2023-09-08T02:03:09;15.60;99.90
14349;DHT22;7258;50.376;8.742;2023-09-08T02:05:13;15.60;99.90
14349;DHT22;7258;50.376;8.742;2023-09-08T02:07:17;15.60;99.90
14349;DHT22;7258;50.376;8.742;2023-09-08T02:09:39;15.60;99.90
14349;DHT22;7258;50.376;8.742;2023-09-08T02:11:44;15.50;99.90
14349;DHT22;7258;50.376;8.742;2023-09-08T02:13:47;15.50;99.90
14349;DHT22;7258;50.376;8.742;2023-09-08T02:15:51;15.50;99.90
14349;DHT22;7258;50.376;8.742;2023-09-08T02:17:54;15.50;99.90
14349;DHT22;7258;50.376;8.742;2023-09-08T02:19:57;15.40;99.90
14349;DHT22;7258;50.376;8.742;2023-09-08T02:21:59;15.40;99.90
14349;DHT22;7258;50.376;8.742;2023-09-08T02:24:02;15.40;99.90
14349;DHT22;7258;50.376;8.742;2023-09-08T02:26:05;15.40;99.90
14349;DHT22;7258;50.376;8.742;2023-09-08T02:28:08;15.40;99.90
14349;DHT22;7258;50.376;8.742;2023-09-08T02:30:11;15.40;99.90
14349;DHT22;7258;50.376;8.742;2023-09-08T02:32:16;15.40;99.90
14349;DHT22;7258;50.376;8.742;2023-09-08T02:34:19;15.30;99.90
14349;DHT22;7258;50.376;8.742;2023-09-08T02:36:22;15.30;99.90
14349;DHT22;7258;50.376;8.742;2023-09-08T02:38:28;15.30;99.90
14349;DHT22;7258;50.376;8.742;2023-09-08T02:40:30;15.30;99.90
14349;DHT22;7258;50.376;8.742;2023-09-08T02:42:37;15.30;99.90
14349;DHT22;7258;50.376;8.742;2023-09-08T02:44:43;15.20;99.90
14349;DHT22;7258;50.376;8.742;2023-09-08T02:46:47;15.20;99.90
14349;DHT22;7258;50.376;8.742;2023-09-08T02:48:51;15.20;99.90
14349;DHT22;7258;50.376;8.742;2023-09-08T02:51:03;15.20;99.90
14349;DHT22;7258;50.376;8.742;2023-09-08T02:53:19;15.10;99.90
14349;DHT22;7258;50.376;8.742;2023-09-08T02:55:41;15.10;99.90
14349;DHT22;7258;50.376;8.742;2023-09-08T02:58:04;15.10;99.90
14349;DHT22;7258;50.376;8.742;2023-09-08T03:00:18;15.10;99.90
14349;DHT22;7258;50.376;8.742;2023-09-08T03:02:36;15.10;99.90
14349;DHT22;7258;50.376;8.742;2023-09-08T03:04:51;15.00;99.90
14349;DHT22;7258;50.376;8.742;2023-09-08T03:07:08;15.00;99.90
14349;DHT22;7258;50.376;8.742;2023-09-08T03:09:30;15.00;99.90
14349;DHT22;7258;50.376;8.742;2023-09-08T03:11:44;14.90;99.90
14349;DHT22;7258;50.376;8.742;2023-09-08T03:14:16;14.90;99.90
14349;DHT22;7258;50.376;8.742;2023-09-08T03:16:28;14.80;99.90
14349;DHT22;7258;50.376;8.742;2023-09-08T03:18:48;14.80;99.90
14349;DHT22;7258;50.376;8.742;2023-09-08T03:21:03;14.80;99.90
14349;DHT22;7258;50.376;8.742;2023-09-08T03:23:23;14.80;99.90
14349;DHT22;7258;50.376;8.742;2023-09-08T03:25:31;14.70;99.90
14349;DHT22;7258;50.376;8.742;2023-09-08T03:27:44;14.70;99.90
14349;DHT22;7258;50.376;8.742;2023-09-08T03:29:57;14.70;99.90
14349;DHT22;7258;50.376;8.742;2023-09-08T03:32:29;14.70;99.90
14349;DHT22;7258;50.376;8.742;2023-09-08T03:35:25;14.70;99.90
14349;DHT22;7258;50.376;8.742;2023-09-08T03:38:07;14.60;99.90
14349;DHT22;7258;50.376;8.742;2023-09-08T03:40:36;14.60;99.90
14349;DHT22;7258;50.376;8.742;2023-09-08T03:42:53;14.60;99.90
14349;DHT22;7258;50.376;8.742;2023-09-08T03:45:33;14.60;99.90
14349;DHT22;7258;50.376;8.742;2023-09-08T03:48:01;14.60;99.90
14349;DHT22;7258;50.376;8.742;2023-09-08T03:50:20;14.60;99.90
14349;DHT22;7258;50.376;8.742;2023-09-08T03:52:45;14.60;99.90
14349;DHT22;7258;50.376;8.742;2023-09-08T03:55:19;14.50;99.90
14349;DHT22;7258;50.376;8.742;2023-09-08T03:58:02;14.50;99.90
14349;DHT22;7258;50.376;8.742;2023-09-08T04:00:26;14.40;99.90
14349;DHT22;7258;50.376;8.742;2023-09-08T04:02:57;14.40;99.90
14349;DHT22;7258;50.376;8.742;2023-09-08T04:05:22;14.40;99.90
14349;DHT22;7258;50.376;8.742;2023-09-08T04:07:59;14.40;99.90
14349;DHT22;7258;50.376;8.742;2023-09-08T04:10:29;14.40;99.90
14349;DHT22;7258;50.376;8.742;2023-09-08T04:13:05;14.40;99.90
14349;DHT22;7258;50.376;8.742;2023-09-08T04:15:26;14.40;99.90
14349;DHT22;7258;50.376;8.742;2023-09-08T04:17:54;14.30;99.90
14349;DHT22;7258;50.376;8.742;2023-09-08T04:20:24;14.40;99.90
14349;DHT22;7258;50.376;8.742;2023-09-08T04:22:58;14.40;99.90
14349;DHT22;7258;50.376;8.742;2023-09-08T04:25:22;14.40;99.90
14349;DHT22;7258;50.376;8.742;2023-09-08T04:27:54;14.40;99.90
14349;DHT22;7258;50.376;8.742;2023-09-08T04:30:39;14.40;99.90
14349;DHT22;7258;50.376;8.742;2023-09-08T04:33:07;14.40;99.90
14349;DHT22;7258;50.376;8.742;2023-09-08T04:35:36;14.40;99.90
14349;DHT22;7258;50.376;8.742;2023-09-08T04:37:59;14.40;99.90
14349;DHT22;7258;50.376;8.742;2023-09-08T04:40:19;14.40;99.90
14349;DHT22;7258;50.376;8.742;2023-09-08T04:43:03;14.40;99.90
14349;DHT22;7258;50.376;8.742;2023-09-08T04:46:09;14.30;99.90
14349;DHT22;7258;50.376;8.742;2023-09-08T04:48:31;14.30;99.90
14349;DHT22;7258;50.376;8.742;2023-09-08T04:51:21;14.20;99.90
14349;DHT22;7258;50.376;8.742;2023-09-08T04:53:25;14.20;99.90
14349;DHT22;7258;50.376;8.742;2023-09-08T04:55:32;14.20;99.90
14349;DHT22;7258;50.376;8.742;2023-09-08T04:57:42;14.20;99.90
14349;DHT22;7258;50.376;8.742;2023-09-08T04:59:51;14.20;99.90
14349;DHT22;7258;50.376;8.742;2023-09-08T05:01:55;14.20;99.90
14349;DHT22;7258;50.376;8.742;2023-09-08T05:04:05;14.20;99.90
14349;DHT22;7258;50.376;8.742;2023-09-08T05:06:23;14.30;99.90
14349;DHT22;7258;50.376;8.742;2023-09-08T05:08:49;14.30;99.90
14349;DHT22;7258;50.376;8.742;2023-09-08T05:11:07;14.30;99.90
14349;DHT22;7258;50.376;8.742;2023-09-08T05:13:25;14.30;99.90
14349;DHT22;7258;50.376;8.742;2023-09-08T05:15:53;14.30;99.90
14349;DHT22;7258;50.376;8.742;2023-09-08T05:18:03;14.40;99.90
14349;DHT22;7258;50.376;8.742;2023-09-08T05:20:21;14.40;99.90
14349;DHT22;7258;50.376;8.742;2023-09-08T05:22:36;14.40;99.90
14349;DHT22;7258;50.376;8.742;2023-09-08T05:24:58;14.30;99.90
14349;DHT22;7258;50.376;8.742;2023-09-08T05:27:41;14.30;99.90
14349;DHT22;7258;50.376;8.742;2023-09-08T05:30:30;14.30;99.90
14349;DHT22;7258;50.376;8.742;2023-09-08T05:33:06;14.30;99.90
14349;DHT22;7258;50.376;8.742;2023-09-08T05:35:10;14.30;99.90
14349;DHT22;7258;50.376;8.742;2023-09-08T05:37:13;14.30;99.90
14349;DHT22;7258;50.376;8.742;2023-09-08T05:39:18;14.30;99.90
14349;DHT22;7258;50.376;8.742;2023-09-08T05:41:21;14.30;99.90
14349;DHT22;7258;50.376;8.742;2023-09-08T05:43:25;14.30;99.90
14349;DHT22;7258;50.376;8.742;2023-09-08T05:45:32;14.40;99.90
14349;DHT22;7258;50.376;8.742;2023-09-08T05:47:39;14.40;99.90
14349;DHT22;7258;50.376;8.742;2023-09-08T05:49:45;14.40;99.90
14349;DHT22;7258;50.376;8.742;2023-09-08T05:51:50;14.50;99.90
14349;DHT22;7258;50.376;8.742;2023-09-08T05:53:57;14.50;99.90
14349;DHT22;7258;50.376;8.742;2023-09-08T05:55:59;14.60;99.90
14349;DHT22;7258;50.376;8.742;2023-09-08T05:58:02;14.70;99.90
14349;DHT22;7258;50.376;8.742;2023-09-08T06:00:07;14.70;99.90
14349;DHT22;7258;50.376;8.742;2023-09-08T06:02:12;14.80;99.90
14349;DHT22;7258;50.376;8.742;2023-09-08T06:04:24;14.90;99.90
14349;DHT22;7258;50.376;8.742;2023-09-08T06:06:29;15.00;99.90
14349;DHT22;7258;50.376;8.742;2023-09-08T06:08:35;15.20;99.90
14349;DHT22;7258;50.376;8.742;2023-09-08T06:10:42;15.30;99.90
14349;DHT22;7258;50.376;8.742;2023-09-08T06:12:47;15.50;99.90
14349;DHT22;7258;50.376;8.742;2023-09-08T06:14:54;15.70;99.90
14349;DHT22;7258;50.376;8.742;2023-09-08T06:17:05;15.80;99.90
14349;DHT22;7258;50.376;8.742;2023-09-08T06:19:08;16.00;99.90
14349;DHT22;7258;50.376;8.742;2023-09-08T06:21:19;16.10;99.90
14349;DHT22;7258;50.376;8.742;2023-09-08T06:23:28;16.20;99.90
14349;DHT22;7258;50.376;8.742;2023-09-08T06:25:31;16.40;99.90
14349;DHT22;7258;50.376;8.742;2023-09-08T06:27:36;16.50;99.90
14349;DHT22;7258;50.376;8.742;2023-09-08T06:29:43;16.50;99.90
14349;DHT22;7258;50.376;8.742;2023-09-08T06:31:52;16.60;99.90
14349;DHT22;7258;50.376;8.742;2023-09-08T06:33:57;16.70;99.90
14349;DHT22;7258;50.376;8.742;2023-09-08T06:36:03;16.90;99.90
14349;DHT22;7258;50.376;8.742;2023-09-08T06:38:13;16.90;99.90
14349;DHT22;7258;50.376;8.742;2023-09-08T06:40:17;17.00;99.90
14349;DHT22;7258;50.376;8.742;2023-09-08T06:42:22;17.20;99.90
14349;DHT22;7258;50.376;8.742;2023-09-08T06:44:30;17.30;99.90
14349;DHT22;7258;50.376;8.742;2023-09-08T06:46:34;17.40;99.90
14349;DHT22;7258;50.376;8.742;2023-09-08T06:48:45;17.50;99.90
14349;DHT22;7258;50.376;8.742;2023-09-08T06:50:52;17.60;99.90
14349;DHT22;7258;50.376;8.742;2023-09-08T06:52:58;17.70;99.90
14349;DHT22;7258;50.376;8.742;2023-09-08T06:55:05;17.80;99.90
14349;DHT22;7258;50.376;8.742;2023-09-08T06:57:10;17.90;99.90
14349;DHT22;7258;50.376;8.742;2023-09-08T06:59:13;18.00;99.90
14349;DHT22;7258;50.376;8.742;2023-09-08T07:01:16;18.10;99.90
14349;DHT22;7258;50.376;8.742;2023-09-08T07:03:19;18.20;99.90
14349;DHT22;7258;50.376;8.742;2023-09-08T07:05:23;18.20;99.90
14349;DHT22;7258;50.376;8.742;2023-09-08T07:07:26;18.30;99.90
14349;DHT22;7258;50.376;8.742;2023-09-08T07:09:28;18.40;99.90
14349;DHT22;7258;50.376;8.742;2023-09-08T07:11:31;18.40;99.90
14349;DHT22;7258;50.376;8.742;2023-09-08T07:13:35;18.40;99.90
14349;DHT22;7258;50.376;8.742;2023-09-08T07:15:38;18.50;99.90
14349;DHT22;7258;50.376;8.742;2023-09-08T07:17:49;18.60;99.90
14349;DHT22;7258;50.376;8.742;2023-09-08T07:20:07;18.70;99.90
14349;DHT22;7258;50.376;8.742;2023-09-08T07:22:16;18.80;99.90
14349;DHT22;7258;50.376;8.742;2023-09-08T07:24:22;19.00;99.90
14349;DHT22;7258;50.376;8.742;2023-09-08T07:26:26;19.20;99.90
14349;DHT22;7258;50.376;8.742;2023-09-08T07:28:34;19.30;99.90
14349;DHT22;7258;50.376;8.742;2023-09-08T07:30:41;19.50;99.90
14349;DHT22;7258;50.376;8.742;2023-09-08T07:32:47;19.60;99.90
14349;DHT22;7258;50.376;8.742;2023-09-08T07:34:55;19.70;99.90
14349;DHT22;7258;50.376;8.742;2023-09-08T07:37:00;19.80;99.90
14349;DHT22;7258;50.376;8.742;2023-09-08T07:39:19;19.90;99.90
14349;DHT22;7258;50.376;8.742;2023-09-08T07:41:40;20.00;99.90
14349;DHT22;7258;50.376;8.742;2023-09-08T07:47:39;20.20;99.90
14349;DHT22;7258;50.376;8.742;2023-09-08T07:50:33;20.40;99.90
14349;DHT22;7258;50.376;8.742;2023-09-08T07:52:41;20.70;99.90
14349;DHT22;7258;50.376;8.742;2023-09-08T07:54:43;20.80;99.90
14349;DHT22;7258;50.376;8.742;2023-09-08T07:56:55;20.90;99.90
14349;DHT22;7258;50.376;8.742;2023-09-08T07:59:04;21.00;99.90
14349;DHT22;7258;50.376;8.742;2023-09-08T08:01:21;21.10;99.90
14349;DHT22;7258;50.376;8.742;2023-09-08T08:03:44;21.20;99.90
14349;DHT22;7258;50.376;8.742;2023-09-08T08:06:07;21.40;99.90
14349;DHT22;7258;50.376;8.742;2023-09-08T08:09:07;21.50;99.90
14349;DHT22;7258;50.376;8.742;2023-09-08T08:12:07;21.70;99.90
14349;DHT22;7258;50.376;8.742;2023-09-08T08:21:56;22.50;99.90
14349;DHT22;7258;50.376;8.742;2023-09-08T08:33:00;23.00;99.90
14349;DHT22;7258;50.376;8.742;2023-09-08T08:38:23;23.20;99.90
14349;DHT22;7258;50.376;8.742;2023-09-08T08:43:45;23.60;99.90
14349;DHT22;7258;50.376;8.742;2023-09-08T08:50:57;23.90;99.90
14349;DHT22;7258;50.376;8.742;2023-09-08T08:53:29;23.90;99.90
14349;DHT22;7258;50.376;8.742;2023-09-08T08:56:06;24.00;99.90
14349;DHT22;7258;50.376;8.742;2023-09-08T08:58:22;24.10;99.90
14349;DHT22;7258;50.376;8.742;2023-09-08T09:04:12;24.30;99.90
14349;DHT22;7258;50.376;8.742;2023-09-08T09:06:18;24.30;99.90
14349;DHT22;7258;50.376;8.742;2023-09-08T09:08:32;24.40;99.90
14349;DHT22;7258;50.376;8.742;2023-09-08T09:10:57;24.50;99.90
14349;DHT22;7258;50.376;8.742;2023-09-08T09:13:16;24.70;99.90
14349;DHT22;7258;50.376;8.742;2023-09-08T09:15:31;24.80;99.90
14349;DHT22;7258;50.376;8.742;2023-09-08T09:18:18;24.90;99.90
14349;DHT22;7258;50.376;8.742;2023-09-08T09:20:57;25.00;99.90
14349;DHT22;7258;50.376;8.742;2023-09-08T09:23:13;25.10;99.90
14349;DHT22;7258;50.376;8.742;2023-09-08T09:25:34;25.20;99.90
14349;DHT22;7258;50.376;8.742;2023-09-08T09:27:53;25.20;99.90
14349;DHT22;7258;50.376;8.742;2023-09-08T09:30:13;25.40;99.90
14349;DHT22;7258;50.376;8.742;2023-09-08T09:32:37;25.40;99.90
14349;DHT22;7258;50.376;8.742;2023-09-08T09:34:56;25.50;99.80
14349;DHT22;7258;50.376;8.742;2023-09-08T09:37:05;25.50;99.90
14349;DHT22;7258;50.376;8.742;2023-09-08T09:39:09;25.60;99.90
14349;DHT22;7258;50.376;8.742;2023-09-08T09:41:13;25.70;99.80
14349;DHT22;7258;50.376;8.742;2023-09-08T09:43:17;25.70;99.20
14349;DHT22;7258;50.376;8.742;2023-09-08T09:45:26;25.70;99.20
14349;DHT22;7258;50.376;8.742;2023-09-08T09:47:32;25.80;99.40
14349;DHT22;7258;50.376;8.742;2023-09-08T09:49:44;25.90;99.40
14349;DHT22;7258;50.376;8.742;2023-09-08T09:51:57;26.00;98.80
14349;DHT22;7258;50.376;8.742;2023-09-08T09:54:06;26.10;98.70
14349;DHT22;7258;50.376;8.742;2023-09-08T09:56:17;26.20;98.70
14349;DHT22;7258;50.376;8.742;2023-09-08T09:58:28;26.30;98.50
14349;DHT22;7258;50.376;8.742;2023-09-08T10:00:42;26.40;98.70
14349;DHT22;7258;50.376;8.742;2023-09-08T10:02:55;26.50;98.50
14349;DHT22;7258;50.376;8.742;2023-09-08T10:05:10;26.50;98.20
14349;DHT22;7258;50.376;8.742;2023-09-08T10:07:16;26.60;98.50
14349;DHT22;7258;50.376;8.742;2023-09-08T10:09:25;26.60;98.20
14349;DHT22;7258;50.376;8.742;2023-09-08T10:11:29;26.70;97.90
14349;DHT22;7258;50.376;8.742;2023-09-08T10:13:39;26.70;98.30
14349;DHT22;7258;50.376;8.742;2023-09-08T10:15:56;26.80;97.70
14349;DHT22;7258;50.376;8.742;2023-09-08T10:18:05;26.80;97.50
14349;DHT22;7258;50.376;8.742;2023-09-08T10:20:27;26.90;97.70
14349;DHT22;7258;50.376;8.742;2023-09-08T10:23:06;26.90;97.70
14349;DHT22;7258;50.376;8.742;2023-09-08T10:25:59;27.00;97.40
14349;DHT22;7258;50.376;8.742;2023-09-08T10:28:06;27.10;97.20
14349;DHT22;7258;50.376;8.742;2023-09-08T10:30:12;27.10;97.20
14349;DHT22;7258;50.376;8.742;2023-09-08T10:32:18;27.20;97.20
14349;DHT22;7258;50.376;8.742;2023-09-08T10:34:24;27.20;97.00
14349;DHT22;7258;50.376;8.742;2023-09-08T10:36:28;27.20;96.80
14349;DHT22;7258;50.376;8.742;2023-09-08T10:38:34;27.10;97.60
14349;DHT22;7258;50.376;8.742;2023-09-08T10:40:40;27.10;96.90
14349;DHT22;7258;50.376;8.742;2023-09-08T10:42:49;27.10;97.00
14349;DHT22;7258;50.376;8.742;2023-09-08T10:45:15;27.20;97.80
14349;DHT22;7258;50.376;8.742;2023-09-08T10:47:25;27.20;97.50
14349;DHT22;7258;50.376;8.742;2023-09-08T10:49:50;27.30;97.60
14349;DHT22;7258;50.376;8.742;2023-09-08T10:52:08;27.40;97.70
14349;DHT22;7258;50.376;8.742;2023-09-08T10:54:43;27.50;97.00
14349;DHT22;7258;50.376;8.742;2023-09-08T10:57:18;27.60;97.10
14349;DHT22;7258;50.376;8.742;2023-09-08T11:00:02;27.70;96.90
14349;DHT22;7258;50.376;8.742;2023-09-08T11:02:42;27.80;96.20
14349;DHT22;7258;50.376;8.742;2023-09-08T11:05:32;27.90;96.20
14349;DHT22;7258;50.376;8.742;2023-09-08T11:07:51;28.00;95.90
14349;DHT22;7258;50.376;8.742;2023-09-08T11:13:34;27.90;96.20
14349;DHT22;7258;50.376;8.742;2023-09-08T11:15:43;28.00;96.30
14349;DHT22;7258;50.376;8.742;2023-09-08T11:21:26;28.10;95.50
14349;DHT22;7258;50.376;8.742;2023-09-08T11:30:13;28.30;95.50
14349;DHT22;7258;50.376;8.742;2023-09-08T11:33:21;28.40;95.60
14349;DHT22;7258;50.376;8.742;2023-09-08T11:36:11;28.60;94.70
14349;DHT22;7258;50.376;8.742;2023-09-08T11:38:28;28.70;95.00
14349;DHT22;7258;50.376;8.742;2023-09-08T11:41:02;28.70;94.80
14349;DHT22;7258;50.376;8.742;2023-09-08T11:46:57;28.80;94.20
14349;DHT22;7258;50.376;8.742;2023-09-08T11:49:05;28.70;93.60
14349;DHT22;7258;50.376;8.742;2023-09-08T11:51:12;28.70;94.30
14349;DHT22;7258;50.376;8.742;2023-09-08T11:53:36;28.70;94.30
14349;DHT22;7258;50.376;8.742;2023-09-08T11:56:07;28.80;94.10
14349;DHT22;7258;50.376;8.742;2023-09-08T12:02:10;28.90;94.20
14349;DHT22;7258;50.376;8.742;2023-09-08T12:04:24;28.90;93.90
14349;DHT22;7258;50.376;8.742;2023-09-08T12:06:39;28.90;94.30
14349;DHT22;7258;50.376;8.742;2023-09-08T12:08:45;28.90;93.70
14349;DHT22;7258;50.376;8.742;2023-09-08T12:10:48;29.00;94.10
14349;DHT22;7258;50.376;8.742;2023-09-08T12:12:52;29.00;93.30
14349;DHT22;7258;50.376;8.742;2023-09-08T12:16:41;29.00;92.80
14349;DHT22;7258;50.376;8.742;2023-09-08T12:19:28;29.00;93.00
14349;DHT22;7258;50.376;8.742;2023-09-08T12:22:08;29.10;92.40
14349;DHT22;7258;50.376;8.742;2023-09-08T12:28:17;29.10;91.60
14349;DHT22;7258;50.376;8.742;2023-09-08T12:39:27;29.20;91.80
14349;DHT22;7258;50.376;8.742;2023-09-08T12:42:05;29.20;92.20
14349;DHT22;7258;50.376;8.742;2023-09-08T12:44:13;29.20;92.50
14349;DHT22;7258;50.376;8.742;2023-09-08T12:49:19;29.20;92.60
14349;DHT22;7258;50.376;8.742;2023-09-08T12:51:23;29.20;92.00
14349;DHT22;7258;50.376;8.742;2023-09-08T12:53:33;29.20;92.60
14349;DHT22;7258;50.376;8.742;2023-09-08T12:55:45;29.20;92.60
14349;DHT22;7258;50.376;8.742;2023-09-08T12:57:49;29.20;92.40
14349;DHT22;7258;50.376;8.742;2023-09-08T12:59:57;29.20;92.90
14349;DHT22;7258;50.376;8.742;2023-09-08T13:02:01;29.20;91.80
14349;DHT22;7258;50.376;8.742;2023-09-08T13:04:10;29.20;92.10
14349;DHT22;7258;50.376;8.742;2023-09-08T13:06:14;29.20;91.60
14349;DHT22;7258;50.376;8.742;2023-09-08T13:08:17;29.20;92.20
14349;DHT22;7258;50.376;8.742;2023-09-08T13:10:23;29.10;92.00
14349;DHT22;7258;50.376;8.742;2023-09-08T13:12:27;29.10;92.70
14349;DHT22;7258;50.376;8.742;2023-09-08T13:14:32;29.10;92.30
14349;DHT22;7258;50.376;8.742;2023-09-08T13:16:37;29.20;92.80
14349;DHT22;7258;50.376;8.742;2023-09-08T13:18:42;29.20;92.00
14349;DHT22;7258;50.376;8.742;2023-09-08T13:20:49;29.10;91.40
14349;DHT22;7258;50.376;8.742;2023-09-08T13:22:52;29.10;91.80
14349;DHT22;7258;50.376;8.742;2023-09-08T13:24:59;29.10;92.10
14349;DHT22;7258;50.376;8.742;2023-09-08T13:27:02;29.10;91.50
14349;DHT22;7258;50.376;8.742;2023-09-08T13:29:09;29.10;91.50
14349;DHT22;7258;50.376;8.742;2023-09-08T13:31:14;29.10;91.50
14349;DHT22;7258;50.376;8.742;2023-09-08T13:33:18;29.10;91.60
14349;DHT22;7258;50.376;8.742;2023-09-08T13:35:24;29.10;91.40
14349;DHT22;7258;50.376;8.742;2023-09-08T13:37:27;29.10;91.30
14349;DHT22;7258;50.376;8.742;2023-09-08T13:39:31;29.10;90.50
14349;DHT22;7258;50.376;8.742;2023-09-08T13:41:48;29.00;90.30
14349;DHT22;7258;50.376;8.742;2023-09-08T13:43:51;29.00;90.30
14349;DHT22;7258;50.376;8.742;2023-09-08T13:45:55;28.90;90.00
14349;DHT22;7258;50.376;8.742;2023-09-08T13:47:58;28.90;90.20
14349;DHT22;7258;50.376;8.742;2023-09-08T13:50:03;28.90;91.00
14349;DHT22;7258;50.376;8.742;2023-09-08T13:52:09;28.80;90.70
14349;DHT22;7258;50.376;8.742;2023-09-08T13:54:16;28.80;90.90
14349;DHT22;7258;50.376;8.742;2023-09-08T13:56:22;28.80;90.90
14349;DHT22;7258;50.376;8.742;2023-09-08T13:58:29;28.70;90.80
14349;DHT22;7258;50.376;8.742;2023-09-08T14:00:50;28.70;91.20
14349;DHT22;7258;50.376;8.742;2023-09-08T14:02:54;28.70;91.20
14349;DHT22;7258;50.376;8.742;2023-09-08T14:05:01;28.70;91.40
14349;DHT22;7258;50.376;8.742;2023-09-08T14:07:14;28.70;91.40
14349;DHT22;7258;50.376;8.742;2023-09-08T14:09:27;28.70;91.10
14349;DHT22;7258;50.376;8.742;2023-09-08T14:11:33;28.70;91.00
14349;DHT22;7258;50.376;8.742;2023-09-08T14:13:56;28.70;90.70
14349;DHT22;7258;50.376;8.742;2023-09-08T14:15:59;28.70;90.90
14349;DHT22;7258;50.376;8.742;2023-09-08T14:18:04;28.70;91.00
14349;DHT22;7258;50.376;8.742;2023-09-08T14:20:12;28.70;90.80
14349;DHT22;7258;50.376;8.742;2023-09-08T14:22:15;28.80;90.80
14349;DHT22;7258;50.376;8.742;2023-09-08T14:24:18;28.80;90.70
14349;DHT22;7258;50.376;8.742;2023-09-08T14:26:23;28.80;90.50
14349;DHT22;7258;50.376;8.742;2023-09-08T14:28:27;28.80;90.40
14349;DHT22;7258;50.376;8.742;2023-09-08T14:30:30;28.80;90.10
14349;DHT22;7258;50.376;8.742;2023-09-08T14:32:33;28.90;90.20
14349;DHT22;7258;50.376;8.742;2023-09-08T14:34:36;28.90;90.10
14349;DHT22;7258;50.376;8.742;2023-09-08T14:36:41;29.00;89.80
14349;DHT22;7258;50.376;8.742;2023-09-08T14:38:44;29.00;90.00
14349;DHT22;7258;50.376;8.742;2023-09-08T14:40:54;29.10;90.10
14349;DHT22;7258;50.376;8.742;2023-09-08T14:42:57;29.10;90.10
14349;DHT22;7258;50.376;8.742;2023-09-08T14:45:03;29.10;89.30
14349;DHT22;7258;50.376;8.742;2023-09-08T14:47:09;29.10;89.60
14349;DHT22;7258;50.376;8.742;2023-09-08T14:49:14;29.20;88.10
14349;DHT22;7258;50.376;8.742;2023-09-08T14:51:20;29.20;88.70
14349;DHT22;7258;50.376;8.742;2023-09-08T14:53:24;29.30;88.00
14349;DHT22;7258;50.376;8.742;2023-09-08T14:55:27;29.20;85.60
14349;DHT22;7258;50.376;8.742;2023-09-08T14:57:30;29.20;85.50
14349;DHT22;7258;50.376;8.742;2023-09-08T14:59:33;29.20;86.60
14349;DHT22;7258;50.376;8.742;2023-09-08T15:01:36;29.20;87.00
14349;DHT22;7258;50.376;8.742;2023-09-08T15:03:42;29.30;87.40
14349;DHT22;7258;50.376;8.742;2023-09-08T15:05:45;29.30;88.30
14349;DHT22;7258;50.376;8.742;2023-09-08T15:07:52;29.50;88.70
14349;DHT22;7258;50.376;8.742;2023-09-08T15:10:03;29.70;88.50
14349;DHT22;7258;50.376;8.742;2023-09-08T15:12:06;29.90;87.40
14349;DHT22;7258;50.376;8.742;2023-09-08T15:14:16;30.10;87.10
14349;DHT22;7258;50.376;8.742;2023-09-08T15:16:21;30.30;87.20
14349;DHT22;7258;50.376;8.742;2023-09-08T15:18:28;30.60;86.60
14349;DHT22;7258;50.376;8.742;2023-09-08T15:20:31;30.80;86.00
14349;DHT22;7258;50.376;8.742;2023-09-08T15:22:37;31.00;85.60